sensor_id;sensor_type;location;lat;lon;timestamp;temperature;humidity
68385;DHT22;55336;43.062;25.626;2022-09-24T00:00:41;4.40;99.90
68385;DHT22;55336;43.062;25.626;2022-09-24T00:03:07;4.40;99.90
68385;DHT22;55336;43.062;25.626;2022-09-24T00:05:40;4.40;99.90
68385;DHT22;55336;43.062;25.626;2022-09-24T00:08:06;4.40;99.90
68385;DHT22;55336;43.062;25.626;2022-09-24T00:10:37;4.30;99.90
68385;DHT22;55336;43.062;25.626;2022-09-24T00:13:11;4.30;99.90
68385;DHT22;55336;43.062;25.626;2022-09-24T00:15:42;4.30;99.90
68385;DHT22;55336;43.062;25.626;2022-09-24T00:18:09;4.30;99.90
68385;DHT22;55336;43.062;25.626;2022-09-24T00:20:37;4.30;99.90
68385;DHT22;55336;43.062;25.626;2022-09-24T00:23:04;4.40;99.90
68385;DHT22;55336;43.062;25.626;2022-09-24T00:25:30;4.40;99.90
68385;DHT22;55336;43.062;25.626;2022-09-24T00:28:15;4.30;99.90
68385;DHT22;55336;43.062;25.626;2022-09-24T00:30:42;4.30;99.90
68385;DHT22;55336;43.062;25.626;2022-09-24T00:33:09;4.50;99.90
68385;DHT22;55336;43.062;25.626;2022-09-24T00:35:36;4.40;99.90
68385;DHT22;55336;43.062;25.626;2022-09-24T00:38:02;4.30;99.90
68385;DHT22;55336;43.062;25.626;2022-09-24T00:40:34;4.40;99.90
68385;DHT22;55336;43.062;25.626;2022-09-24T00:43:00;4.30;99.90
68385;DHT22;55336;43.062;25.626;2022-09-24T00:45:28;4.40;99.90
68385;DHT22;55336;43.062;25.626;2022-09-24T00:47:57;4.30;99.90
68385;DHT22;55336;43.062;25.626;2022-09-24T00:50:28;4.30;99.90
68385;DHT22;55336;43.062;25.626;2022-09-24T00:53:15;4.20;99.90
68385;DHT22;55336;43.062;25.626;2022-09-24T00:55:45;4.30;99.90
68385;DHT22;55336;43.062;25.626;2022-09-24T00:58:12;4.20;99.90
68385;DHT22;55336;43.062;25.626;2022-09-24T01:00:40;4.20;99.90
68385;DHT22;55336;43.062;25.626;2022-09-24T01:03:19;4.10;99.90
68385;DHT22;55336;43.062;25.626;2022-09-24T01:05:46;4.10;99.90
68385;DHT22;55336;43.062;25.626;2022-09-24T01:08:13;4.10;99.90
68385;DHT22;55336;43.062;25.626;2022-09-24T01:18:44;4.00;99.90
68385;DHT22;55336;43.062;25.626;2022-09-24T01:32:01;3.80;99.90
68385;DHT22;55336;43.062;25.626;2022-09-24T01:34:46;3.80;99.90
68385;DHT22;55336;43.062;25.626;2022-09-24T01:37:16;3.70;99.90
68385;DHT22;55336;43.062;25.626;2022-09-24T01:39:44;3.70;99.90
68385;DHT22;55336;43.062;25.626;2022-09-24T01:42:12;3.80;99.90
68385;DHT22;55336;43.062;25.626;2022-09-24T01:44:39;3.80;99.90
68385;DHT22;55336;43.062;25.626;2022-09-24T01:47:09;3.70;99.90
68385;DHT22;55336;43.062;25.626;2022-09-24T01:49:40;3.70;99.90
68385;DHT22;55336;43.062;25.626;2022-09-24T01:52:09;3.70;99.90
68385;DHT22;55336;43.062;25.626;2022-09-24T01:54:40;3.70;99.90
68385;DHT22;55336;43.062;25.626;2022-09-24T01:57:15;3.60;99.90
68385;DHT22;55336;43.062;25.626;2022-09-24T01:59:54;3.60;99.90
68385;DHT22;55336;43.062;25.626;2022-09-24T02:04:58;3.60;99.90
68385;DHT22;55336;43.062;25.626;2022-09-24T02:07:33;3.70;99.90
68385;DHT22;55336;43.062;25.626;2022-09-24T02:10:00;3.70;99.90
68385;DHT22;55336;43.062;25.626;2022-09-24T02:12:36;3.70;99.90
68385;DHT22;55336;43.062;25.626;2022-09-24T02:15:10;3.70;99.90
68385;DHT22;55336;43.062;25.626;2022-09-24T02:17:40;3.70;99.90
68385;DHT22;55336;43.062;25.626;2022-09-24T02:20:12;3.70;99.90
68385;DHT22;55336;43.062;25.626;2022-09-24T02:22:40;3.60;99.90
68385;DHT22;55336;43.062;25.626;2022-09-24T02:25:12;3.60;99.90
68385;DHT22;55336;43.062;25.626;2022-09-24T02:27:39;3.60;99.90
68385;DHT22;55336;43.062;25.626;2022-09-24T02:30:06;3.60;99.90
68385;DHT22;55336;43.062;25.626;2022-09-24T02:32:35;3.60;99.90
68385;DHT22;55336;43.062;25.626;2022-09-24T02:35:05;3.70;99.90
68385;DHT22;55336;43.062;25.626;2022-09-24T02:37:37;3.60;99.90
68385;DHT22;55336;43.062;25.626;2022-09-24T02:40:04;3.60;99.90
68385;DHT22;55336;43.062;25.626;2022-09-24T02:42:31;3.60;99.90
68385;DHT22;55336;43.062;25.626;2022-09-24T02:44:57;3.60;99.90
68385;DHT22;55336;43.062;25.626;2022-09-24T02:47:25;3.50;99.90
68385;DHT22;55336;43.062;25.626;2022-09-24T02:49:51;3.50;99.90
68385;DHT22;55336;43.062;25.626;2022-09-24T02:52:17;3.50;99.90
68385;DHT22;55336;43.062;25.626;2022-09-24T02:54:43;3.40;99.90
68385;DHT22;55336;43.062;25.626;2022-09-24T02:57:09;3.40;99.90
68385;DHT22;55336;43.062;25.626;2022-09-24T02:59:35;3.40;99.90
68385;DHT22;55336;43.062;25.626;2022-09-24T03:02:02;3.40;99.90
68385;DHT22;55336;43.062;25.626;2022-09-24T03:04:27;3.40;99.90
68385;DHT22;55336;43.062;25.626;2022-09-24T03:06:55;3.40;99.90
68385;DHT22;55336;43.062;25.626;2022-09-24T03:09:21;3.40;99.90
68385;DHT22;55336;43.062;25.626;2022-09-24T03:11:46;3.40;99.90
68385;DHT22;55336;43.062;25.626;2022-09-24T03:14:12;3.30;99.90
68385;DHT22;55336;43.062;25.626;2022-09-24T03:16:38;3.30;99.90
68385;DHT22;55336;43.062;25.626;2022-09-24T03:19:05;3.30;99.90
68385;DHT22;55336;43.062;25.626;2022-09-24T03:21:32;3.20;99.90
68385;DHT22;55336;43.062;25.626;2022-09-24T03:23:57;3.30;99.90
68385;DHT22;55336;43.062;25.626;2022-09-24T03:26:25;3.20;99.90
68385;DHT22;55336;43.062;25.626;2022-09-24T03:28:51;3.20;99.90
68385;DHT22;55336;43.062;25.626;2022-09-24T03:31:17;3.20;99.90
68385;DHT22;55336;43.062;25.626;2022-09-24T03:33:44;3.10;99.90
68385;DHT22;55336;43.062;25.626;2022-09-24T03:36:17;3.10;99.90
68385;DHT22;55336;43.062;25.626;2022-09-24T03:38:46;3.10;99.90
68385;DHT22;55336;43.062;25.626;2022-09-24T03:41:13;3.10;99.90
68385;DHT22;55336;43.062;25.626;2022-09-24T03:43:39;3.00;99.90
68385;DHT22;55336;43.062;25.626;2022-09-24T03:46:06;3.00;99.90
68385;DHT22;55336;43.062;25.626;2022-09-24T03:48:37;3.00;99.90
68385;DHT22;55336;43.062;25.626;2022-09-24T03:51:10;3.00;99.90
68385;DHT22;55336;43.062;25.626;2022-09-24T03:53:37;3.00;99.90
68385;DHT22;55336;43.062;25.626;2022-09-24T03:56:04;2.90;99.90
68385;DHT22;55336;43.062;25.626;2022-09-24T03:58:32;2.90;99.90
68385;DHT22;55336;43.062;25.626;2022-09-24T04:01:03;2.90;99.90
68385;DHT22;55336;43.062;25.626;2022-09-24T04:03:28;2.90;99.90
68385;DHT22;55336;43.062;25.626;2022-09-24T04:05:54;2.90;99.90
68385;DHT22;55336;43.062;25.626;2022-09-24T04:08:21;2.90;99.90
68385;DHT22;55336;43.062;25.626;2022-09-24T04:10:48;3.00;99.90
68385;DHT22;55336;43.062;25.626;2022-09-24T04:13:15;3.00;99.90
68385;DHT22;55336;43.062;25.626;2022-09-24T04:15:41;3.00;99.90
68385;DHT22;55336;43.062;25.626;2022-09-24T04:18:08;3.00;99.90
68385;DHT22;55336;43.062;25.626;2022-09-24T04:20:34;3.00;99.90
68385;DHT22;55336;43.062;25.626;2022-09-24T04:23:00;3.00;99.90
68385;DHT22;55336;43.062;25.626;2022-09-24T04:25:28;3.00;99.90
68385;DHT22;55336;43.062;25.626;2022-09-24T04:28:00;3.00;99.90
68385;DHT22;55336;43.062;25.626;2022-09-24T04:30:27;3.10;99.90
68385;DHT22;55336;43.062;25.626;2022-09-24T04:32:53;3.10;99.90
68385;DHT22;55336;43.062;25.626;2022-09-24T04:35:21;3.10;99.90
68385;DHT22;55336;43.062;25.626;2022-09-24T04:37:48;3.10;99.90
68385;DHT22;55336;43.062;25.626;2022-09-24T04:40:14;3.20;99.90
68385;DHT22;55336;43.062;25.626;2022-09-24T04:42:42;3.20;99.90
68385;DHT22;55336;43.062;25.626;2022-09-24T04:45:10;3.30;99.90
68385;DHT22;55336;43.062;25.626;2022-09-24T04:47:36;3.30;99.90
68385;DHT22;55336;43.062;25.626;2022-09-24T04:50:06;3.50;99.90
68385;DHT22;55336;43.062;25.626;2022-09-24T04:52:33;3.60;99.90
68385;DHT22;55336;43.062;25.626;2022-09-24T04:54:59;3.60;99.90
68385;DHT22;55336;43.062;25.626;2022-09-24T04:57:26;3.70;99.90
68385;DHT22;55336;43.062;25.626;2022-09-24T04:59:53;3.80;99.90
68385;DHT22;55336;43.062;25.626;2022-09-24T05:02:19;3.90;99.90
68385;DHT22;55336;43.062;25.626;2022-09-24T05:04:45;4.00;99.90
68385;DHT22;55336;43.062;25.626;2022-09-24T05:07:11;4.10;99.90
68385;DHT22;55336;43.062;25.626;2022-09-24T05:09:38;4.30;99.90
68385;DHT22;55336;43.062;25.626;2022-09-24T05:12:04;4.40;99.90
68385;DHT22;55336;43.062;25.626;2022-09-24T05:14:30;4.50;99.90
68385;DHT22;55336;43.062;25.626;2022-09-24T05:16:56;4.60;99.90
68385;DHT22;55336;43.062;25.626;2022-09-24T05:19:22;4.70;99.90
68385;DHT22;55336;43.062;25.626;2022-09-24T05:21:48;4.80;99.90
68385;DHT22;55336;43.062;25.626;2022-09-24T05:24:14;4.90;99.90
68385;DHT22;55336;43.062;25.626;2022-09-24T05:26:41;5.00;99.90
68385;DHT22;55336;43.062;25.626;2022-09-24T05:29:26;5.10;99.90
68385;DHT22;55336;43.062;25.626;2022-09-24T05:31:52;5.20;99.90
68385;DHT22;55336;43.062;25.626;2022-09-24T05:34:17;5.40;99.90
68385;DHT22;55336;43.062;25.626;2022-09-24T05:36:43;5.50;99.90
68385;DHT22;55336;43.062;25.626;2022-09-24T05:39:09;5.70;99.90
68385;DHT22;55336;43.062;25.626;2022-09-24T05:41:37;5.80;99.90
68385;DHT22;55336;43.062;25.626;2022-09-24T05:44:03;5.90;99.90
68385;DHT22;55336;43.062;25.626;2022-09-24T05:46:29;6.30;99.90
68385;DHT22;55336;43.062;25.626;2022-09-24T05:48:55;6.70;99.90
68385;DHT22;55336;43.062;25.626;2022-09-24T05:51:21;7.10;99.90
68385;DHT22;55336;43.062;25.626;2022-09-24T05:53:47;7.60;99.90
68385;DHT22;55336;43.062;25.626;2022-09-24T05:56:15;8.10;99.90
68385;DHT22;55336;43.062;25.626;2022-09-24T05:58:41;8.70;99.90
68385;DHT22;55336;43.062;25.626;2022-09-24T06:01:06;9.40;99.90
68385;DHT22;55336;43.062;25.626;2022-09-24T06:03:32;10.00;99.90
68385;DHT22;55336;43.062;25.626;2022-09-24T06:05:58;10.50;99.90
68385;DHT22;55336;43.062;25.626;2022-09-24T06:08:28;11.00;99.90
68385;DHT22;55336;43.062;25.626;2022-09-24T06:10:59;11.20;99.90
68385;DHT22;55336;43.062;25.626;2022-09-24T06:13:25;11.40;99.90
68385;DHT22;55336;43.062;25.626;2022-09-24T06:15:51;11.70;99.90
68385;DHT22;55336;43.062;25.626;2022-09-24T06:18:16;12.10;99.90
68385;DHT22;55336;43.062;25.626;2022-09-24T06:20:42;12.60;99.90
68385;DHT22;55336;43.062;25.626;2022-09-24T06:23:09;12.90;99.90
68385;DHT22;55336;43.062;25.626;2022-09-24T06:25:35;13.30;99.90
68385;DHT22;55336;43.062;25.626;2022-09-24T06:28:02;13.70;99.90
68385;DHT22;55336;43.062;25.626;2022-09-24T06:30:38;13.90;99.90
68385;DHT22;55336;43.062;25.626;2022-09-24T06:33:06;14.20;99.90
68385;DHT22;55336;43.062;25.626;2022-09-24T06:35:37;14.30;99.90
68385;DHT22;55336;43.062;25.626;2022-09-24T06:38:04;14.50;99.90
68385;DHT22;55336;43.062;25.626;2022-09-24T06:40:30;14.80;99.90
68385;DHT22;55336;43.062;25.626;2022-09-24T06:42:56;15.20;99.90
68385;DHT22;55336;43.062;25.626;2022-09-24T06:45:23;15.20;99.90
68385;DHT22;55336;43.062;25.626;2022-09-24T06:47:57;15.40;99.90
68385;DHT22;55336;43.062;25.626;2022-09-24T06:50:28;15.80;99.90
68385;DHT22;55336;43.062;25.626;2022-09-24T06:52:55;15.90;99.90
68385;DHT22;55336;43.062;25.626;2022-09-24T06:55:21;16.30;99.90
68385;DHT22;55336;43.062;25.626;2022-09-24T06:57:47;16.50;99.90
68385;DHT22;55336;43.062;25.626;2022-09-24T07:00:14;16.80;99.90
68385;DHT22;55336;43.062;25.626;2022-09-24T07:02:40;17.10;99.90
68385;DHT22;55336;43.062;25.626;2022-09-24T07:05:07;17.50;99.90
68385;DHT22;55336;43.062;25.626;2022-09-24T07:07:34;17.60;99.20
68385;DHT22;55336;43.062;25.626;2022-09-24T07:10:05;17.90;93.80
68385;DHT22;55336;43.062;25.626;2022-09-24T07:12:33;18.20;90.70
68385;DHT22;55336;43.062;25.626;2022-09-24T07:14:59;18.50;90.80
68385;DHT22;55336;43.062;25.626;2022-09-24T07:17:26;18.80;85.60
68385;DHT22;55336;43.062;25.626;2022-09-24T07:19:53;19.10;81.60
68385;DHT22;55336;43.062;25.626;2022-09-24T07:22:19;19.40;81.60
68385;DHT22;55336;43.062;25.626;2022-09-24T07:24:46;19.50;78.20
68385;DHT22;55336;43.062;25.626;2022-09-24T07:27:13;19.50;73.90
68385;DHT22;55336;43.062;25.626;2022-09-24T07:29:39;19.70;73.20
68385;DHT22;55336;43.062;25.626;2022-09-24T07:32:05;19.70;68.30
68385;DHT22;55336;43.062;25.626;2022-09-24T07:34:31;19.60;67.70
68385;DHT22;55336;43.062;25.626;2022-09-24T07:36:59;19.90;72.00
68385;DHT22;55336;43.062;25.626;2022-09-24T07:39:25;20.00;69.00
68385;DHT22;55336;43.062;25.626;2022-09-24T07:41:51;20.40;64.50
68385;DHT22;55336;43.062;25.626;2022-09-24T07:44:18;20.50;65.20
68385;DHT22;55336;43.062;25.626;2022-09-24T07:46:50;20.90;63.60
68385;DHT22;55336;43.062;25.626;2022-09-24T07:49:16;21.30;60.30
68385;DHT22;55336;43.062;25.626;2022-09-24T07:51:42;21.80;65.80
68385;DHT22;55336;43.062;25.626;2022-09-24T07:54:08;21.80;64.30
68385;DHT22;55336;43.062;25.626;2022-09-24T07:56:35;21.60;69.50
68385;DHT22;55336;43.062;25.626;2022-09-24T07:59:01;21.30;66.60
68385;DHT22;55336;43.062;25.626;2022-09-24T08:01:27;21.50;58.90
68385;DHT22;55336;43.062;25.626;2022-09-24T08:03:52;21.40;57.90
68385;DHT22;55336;43.062;25.626;2022-09-24T08:06:19;21.50;70.50
68385;DHT22;55336;43.062;25.626;2022-09-24T08:08:51;21.60;59.80
68385;DHT22;55336;43.062;25.626;2022-09-24T08:11:21;22.20;52.50
68385;DHT22;55336;43.062;25.626;2022-09-24T08:13:46;22.20;59.10
68385;DHT22;55336;43.062;25.626;2022-09-24T08:16:12;22.20;55.90
68385;DHT22;55336;43.062;25.626;2022-09-24T08:18:38;22.40;58.10
68385;DHT22;55336;43.062;25.626;2022-09-24T08:21:08;22.60;50.20
68385;DHT22;55336;43.062;25.626;2022-09-24T08:23:40;23.00;52.60
68385;DHT22;55336;43.062;25.626;2022-09-24T08:26:06;23.00;48.80
68385;DHT22;55336;43.062;25.626;2022-09-24T08:28:33;22.40;52.30
68385;DHT22;55336;43.062;25.626;2022-09-24T08:31:04;22.70;48.40
68385;DHT22;55336;43.062;25.626;2022-09-24T08:33:33;22.80;46.70
68385;DHT22;55336;43.062;25.626;2022-09-24T08:36:05;23.00;48.10
68385;DHT22;55336;43.062;25.626;2022-09-24T08:38:31;22.40;50.70
68385;DHT22;55336;43.062;25.626;2022-09-24T08:44:04;21.90;51.30
68385;DHT22;55336;43.062;25.626;2022-09-24T08:46:48;22.00;52.50
68385;DHT22;55336;43.062;25.626;2022-09-24T08:49:39;22.60;47.40
68385;DHT22;55336;43.062;25.626;2022-09-24T08:54:56;23.50;45.20
68385;DHT22;55336;43.062;25.626;2022-09-24T08:57:27;23.50;44.80
68385;DHT22;55336;43.062;25.626;2022-09-24T08:59:53;23.60;44.00
68385;DHT22;55336;43.062;25.626;2022-09-24T09:08:06;23.80;43.50
68385;DHT22;55336;43.062;25.626;2022-09-24T09:10:37;23.90;40.80
68385;DHT22;55336;43.062;25.626;2022-09-24T09:13:12;24.10;40.70
68385;DHT22;55336;43.062;25.626;2022-09-24T09:15:43;24.70;40.70
68385;DHT22;55336;43.062;25.626;2022-09-24T09:18:25;24.80;41.80
68385;DHT22;55336;43.062;25.626;2022-09-24T09:21:27;23.20;46.40
68385;DHT22;55336;43.062;25.626;2022-09-24T09:23:51;22.60;44.40
68385;DHT22;55336;43.062;25.626;2022-09-24T09:26:17;21.80;49.30
68385;DHT22;55336;43.062;25.626;2022-09-24T09:28:45;23.10;44.00
68385;DHT22;55336;43.062;25.626;2022-09-24T09:36:47;23.70;39.80
68385;DHT22;55336;43.062;25.626;2022-09-24T09:44:47;22.60;42.40
68385;DHT22;55336;43.062;25.626;2022-09-24T09:47:42;21.70;43.10
68385;DHT22;55336;43.062;25.626;2022-09-24T09:53:02;21.70;48.70
68385;DHT22;55336;43.062;25.626;2022-09-24T09:55:36;23.20;42.20
68385;DHT22;55336;43.062;25.626;2022-09-24T10:00:40;24.90;38.00
68385;DHT22;55336;43.062;25.626;2022-09-24T10:03:24;24.70;37.30
68385;DHT22;55336;43.062;25.626;2022-09-24T10:06:04;24.60;38.50
68385;DHT22;55336;43.062;25.626;2022-09-24T10:08:31;25.00;36.00
68385;DHT22;55336;43.062;25.626;2022-09-24T10:10:57;25.60;34.00
68385;DHT22;55336;43.062;25.626;2022-09-24T10:13:24;26.20;34.20
68385;DHT22;55336;43.062;25.626;2022-09-24T10:18:27;25.00;34.50
68385;DHT22;55336;43.062;25.626;2022-09-24T10:20:54;25.50;34.80
68385;DHT22;55336;43.062;25.626;2022-09-24T10:23:28;25.30;35.00
68385;DHT22;55336;43.062;25.626;2022-09-24T10:26:01;24.90;31.30
68385;DHT22;55336;43.062;25.626;2022-09-24T10:28:28;24.60;34.70
68385;DHT22;55336;43.062;25.626;2022-09-24T10:31:25;24.80;32.00
68385;DHT22;55336;43.062;25.626;2022-09-24T10:33:54;25.50;29.60
68385;DHT22;55336;43.062;25.626;2022-09-24T10:36:23;24.90;33.40
68385;DHT22;55336;43.062;25.626;2022-09-24T10:39:01;25.10;31.30
68385;DHT22;55336;43.062;25.626;2022-09-24T10:41:30;24.60;36.40
68385;DHT22;55336;43.062;25.626;2022-09-24T10:43:59;24.70;35.10
68385;DHT22;55336;43.062;25.626;2022-09-24T10:49:58;25.20;30.10
68385;DHT22;55336;43.062;25.626;2022-09-24T11:06:18;25.30;32.40
68385;DHT22;55336;43.062;25.626;2022-09-24T11:08:52;26.30;33.50
68385;DHT22;55336;43.062;25.626;2022-09-24T11:11:44;26.50;28.80
68385;DHT22;55336;43.062;25.626;2022-09-24T11:19:27;26.10;28.10
68385;DHT22;55336;43.062;25.626;2022-09-24T11:22:40;25.50;31.30
68385;DHT22;55336;43.062;25.626;2022-09-24T11:25:26;25.70;29.30
68385;DHT22;55336;43.062;25.626;2022-09-24T11:36:43;25.70;28.80
68385;DHT22;55336;43.062;25.626;2022-09-24T11:41:59;25.00;30.30
68385;DHT22;55336;43.062;25.626;2022-09-24T11:52:58;25.90;27.00
68385;DHT22;55336;43.062;25.626;2022-09-24T11:55:42;26.30;29.40
68385;DHT22;55336;43.062;25.626;2022-09-24T12:00:54;25.60;27.40
68385;DHT22;55336;43.062;25.626;2022-09-24T12:06:29;26.40;26.90
68385;DHT22;55336;43.062;25.626;2022-09-24T12:09:21;26.40;27.00
68385;DHT22;55336;43.062;25.626;2022-09-24T12:11:52;26.10;26.40
68385;DHT22;55336;43.062;25.626;2022-09-24T12:14:25;25.90;27.80
68385;DHT22;55336;43.062;25.626;2022-09-24T12:16:57;26.20;27.30
68385;DHT22;55336;43.062;25.626;2022-09-24T12:19:48;26.20;27.80
68385;DHT22;55336;43.062;25.626;2022-09-24T12:22:17;26.10;25.60
68385;DHT22;55336;43.062;25.626;2022-09-24T12:24:54;25.10;25.80
68385;DHT22;55336;43.062;25.626;2022-09-24T12:27:32;25.60;26.40
68385;DHT22;55336;43.062;25.626;2022-09-24T12:33:33;24.90;31.40
68385;DHT22;55336;43.062;25.626;2022-09-24T12:36:04;25.50;30.00
68385;DHT22;55336;43.062;25.626;2022-09-24T12:43:41;26.10;24.80
68385;DHT22;55336;43.062;25.626;2022-09-24T12:48:56;26.40;25.60
68385;DHT22;55336;43.062;25.626;2022-09-24T12:51:23;25.90;24.40
68385;DHT22;55336;43.062;25.626;2022-09-24T12:57:18;26.00;26.30
68385;DHT22;55336;43.062;25.626;2022-09-24T12:59:54;26.00;28.80
68385;DHT22;55336;43.062;25.626;2022-09-24T13:02:28;26.00;29.10
68385;DHT22;55336;43.062;25.626;2022-09-24T13:07:38;25.70;27.00
68385;DHT22;55336;43.062;25.626;2022-09-24T13:12:43;26.50;24.30
68385;DHT22;55336;43.062;25.626;2022-09-24T13:18:05;27.40;22.90
68385;DHT22;55336;43.062;25.626;2022-09-24T13:20:33;27.20;22.10
68385;DHT22;55336;43.062;25.626;2022-09-24T13:26:07;25.90;28.40
68385;DHT22;55336;43.062;25.626;2022-09-24T13:28:58;25.40;27.20
68385;DHT22;55336;43.062;25.626;2022-09-24T13:34:10;24.50;28.40
68385;DHT22;55336;43.062;25.626;2022-09-24T13:36:47;25.40;29.30
68385;DHT22;55336;43.062;25.626;2022-09-24T13:39:41;26.20;28.00
68385;DHT22;55336;43.062;25.626;2022-09-24T13:42:32;25.90;25.10
68385;DHT22;55336;43.062;25.626;2022-09-24T13:45:01;25.30;30.20
68385;DHT22;55336;43.062;25.626;2022-09-24T13:47:46;25.00;30.30
68385;DHT22;55336;43.062;25.626;2022-09-24T13:53:06;26.40;24.60
68385;DHT22;55336;43.062;25.626;2022-09-24T13:55:42;26.20;24.40
68385;DHT22;55336;43.062;25.626;2022-09-24T13:58:29;26.10;26.50
68385;DHT22;55336;43.062;25.626;2022-09-24T14:00:56;26.70;24.80
68385;DHT22;55336;43.062;25.626;2022-09-24T14:03:29;26.90;24.50
68385;DHT22;55336;43.062;25.626;2022-09-24T14:05:55;27.00;23.50
68385;DHT22;55336;43.062;25.626;2022-09-24T14:08:23;27.20;25.70
68385;DHT22;55336;43.062;25.626;2022-09-24T14:10:51;27.60;27.90
68385;DHT22;55336;43.062;25.626;2022-09-24T14:13:26;27.30;26.20
68385;DHT22;55336;43.062;25.626;2022-09-24T14:16:05;27.10;23.60
68385;DHT22;55336;43.062;25.626;2022-09-24T14:18:31;27.00;26.80
68385;DHT22;55336;43.062;25.626;2022-09-24T14:21:12;26.90;23.20
68385;DHT22;55336;43.062;25.626;2022-09-24T14:23:53;26.30;23.90
68385;DHT22;55336;43.062;25.626;2022-09-24T14:28:57;24.50;30.60
68385;DHT22;55336;43.062;25.626;2022-09-24T14:31:24;24.20;32.70
68385;DHT22;55336;43.062;25.626;2022-09-24T14:33:50;23.60;32.40
68385;DHT22;55336;43.062;25.626;2022-09-24T14:36:16;24.10;34.10
68385;DHT22;55336;43.062;25.626;2022-09-24T14:39:01;24.30;33.40
68385;DHT22;55336;43.062;25.626;2022-09-24T14:41:30;24.60;31.20
68385;DHT22;55336;43.062;25.626;2022-09-24T14:44:05;24.60;29.50
68385;DHT22;55336;43.062;25.626;2022-09-24T14:46:53;24.10;29.70
68385;DHT22;55336;43.062;25.626;2022-09-24T14:49:42;24.00;33.90
68385;DHT22;55336;43.062;25.626;2022-09-24T14:52:44;23.80;30.60
68385;DHT22;55336;43.062;25.626;2022-09-24T14:55:21;23.30;34.40
68385;DHT22;55336;43.062;25.626;2022-09-24T14:57:59;23.10;35.10
68385;DHT22;55336;43.062;25.626;2022-09-24T15:00:26;23.00;31.70
68385;DHT22;55336;43.062;25.626;2022-09-24T15:03:14;22.90;33.20
68385;DHT22;55336;43.062;25.626;2022-09-24T15:05:40;22.00;41.70
68385;DHT22;55336;43.062;25.626;2022-09-24T15:08:24;22.20;43.00
68385;DHT22;55336;43.062;25.626;2022-09-24T15:10:59;21.70;42.30
68385;DHT22;55336;43.062;25.626;2022-09-24T15:13:30;21.30;48.00
68385;DHT22;55336;43.062;25.626;2022-09-24T15:16:26;21.00;48.20
68385;DHT22;55336;43.062;25.626;2022-09-24T15:19:16;20.70;48.10
68385;DHT22;55336;43.062;25.626;2022-09-24T15:21:45;20.00;51.50
68385;DHT22;55336;43.062;25.626;2022-09-24T15:24:11;19.50;55.50
68385;DHT22;55336;43.062;25.626;2022-09-24T15:26:39;19.10;54.30
68385;DHT22;55336;43.062;25.626;2022-09-24T15:29:05;18.60;61.60
68385;DHT22;55336;43.062;25.626;2022-09-24T15:31:31;18.40;59.80
68385;DHT22;55336;43.062;25.626;2022-09-24T15:33:57;18.10;59.60
68385;DHT22;55336;43.062;25.626;2022-09-24T15:36:23;17.70;63.70
68385;DHT22;55336;43.062;25.626;2022-09-24T15:38:49;17.20;65.80
68385;DHT22;55336;43.062;25.626;2022-09-24T15:41:16;16.90;66.20
68385;DHT22;55336;43.062;25.626;2022-09-24T15:43:42;16.60;68.60
68385;DHT22;55336;43.062;25.626;2022-09-24T15:46:08;16.40;69.50
68385;DHT22;55336;43.062;25.626;2022-09-24T15:48:34;16.00;72.40
68385;DHT22;55336;43.062;25.626;2022-09-24T15:51:00;15.80;71.90
68385;DHT22;55336;43.062;25.626;2022-09-24T15:53:26;15.60;72.70
68385;DHT22;55336;43.062;25.626;2022-09-24T15:55:58;15.40;75.80
68385;DHT22;55336;43.062;25.626;2022-09-24T15:58:26;15.20;75.40
68385;DHT22;55336;43.062;25.626;2022-09-24T16:00:52;14.90;75.80
68385;DHT22;55336;43.062;25.626;2022-09-24T16:03:27;14.70;77.80
68385;DHT22;55336;43.062;25.626;2022-09-24T16:05:54;14.50;82.40
68385;DHT22;55336;43.062;25.626;2022-09-24T16:08:20;14.20;82.00
68385;DHT22;55336;43.062;25.626;2022-09-24T16:10:47;14.10;84.20
68385;DHT22;55336;43.062;25.626;2022-09-24T16:13:14;13.90;86.00
68385;DHT22;55336;43.062;25.626;2022-09-24T16:15:40;13.60;93.00
68385;DHT22;55336;43.062;25.626;2022-09-24T16:18:08;13.40;99.90
68385;DHT22;55336;43.062;25.626;2022-09-24T16:20:37;13.20;99.90
68385;DHT22;55336;43.062;25.626;2022-09-24T16:23:03;13.10;99.90
68385;DHT22;55336;43.062;25.626;2022-09-24T16:25:29;12.80;99.90
68385;DHT22;55336;43.062;25.626;2022-09-24T16:27:57;12.70;99.90
68385;DHT22;55336;43.062;25.626;2022-09-24T16:30:23;12.60;99.90
68385;DHT22;55336;43.062;25.626;2022-09-24T16:32:49;12.40;99.90
68385;DHT22;55336;43.062;25.626;2022-09-24T16:35:15;12.30;99.90
68385;DHT22;55336;43.062;25.626;2022-09-24T16:37:41;12.20;99.90
68385;DHT22;55336;43.062;25.626;2022-09-24T16:40:07;12.00;99.90
68385;DHT22;55336;43.062;25.626;2022-09-24T16:42:33;11.90;99.90
68385;DHT22;55336;43.062;25.626;2022-09-24T16:44:59;11.80;99.90
68385;DHT22;55336;43.062;25.626;2022-09-24T16:47:26;11.70;99.90
68385;DHT22;55336;43.062;25.626;2022-09-24T16:49:52;11.60;99.90
68385;DHT22;55336;43.062;25.626;2022-09-24T16:52:18;11.40;99.90
68385;DHT22;55336;43.062;25.626;2022-09-24T16:54:44;11.30;99.90
68385;DHT22;55336;43.062;25.626;2022-09-24T16:57:10;11.30;99.90
68385;DHT22;55336;43.062;25.626;2022-09-24T16:59:35;11.20;99.90
68385;DHT22;55336;43.062;25.626;2022-09-24T17:02:01;11.10;99.90
68385;DHT22;55336;43.062;25.626;2022-09-24T17:04:27;11.00;99.90
68385;DHT22;55336;43.062;25.626;2022-09-24T17:06:57;10.80;99.90
68385;DHT22;55336;43.062;25.626;2022-09-24T17:09:23;10.80;99.90
68385;DHT22;55336;43.062;25.626;2022-09-24T17:12:07;10.70;99.90
68385;DHT22;55336;43.062;25.626;2022-09-24T17:14:36;10.70;99.90
68385;DHT22;55336;43.062;25.626;2022-09-24T17:17:03;10.60;99.90
68385;DHT22;55336;43.062;25.626;2022-09-24T17:19:29;10.50;99.90
68385;DHT22;55336;43.062;25.626;2022-09-24T17:21:54;10.40;99.90
68385;DHT22;55336;43.062;25.626;2022-09-24T17:24:20;10.40;99.90
68385;DHT22;55336;43.062;25.626;2022-09-24T17:26:46;10.30;99.90
68385;DHT22;55336;43.062;25.626;2022-09-24T17:29:13;10.30;99.90
68385;DHT22;55336;43.062;25.626;2022-09-24T17:31:39;10.20;99.90
68385;DHT22;55336;43.062;25.626;2022-09-24T17:34:07;10.10;99.90
68385;DHT22;55336;43.062;25.626;2022-09-24T17:36:37;10.00;99.90
68385;DHT22;55336;43.062;25.626;2022-09-24T17:39:03;9.90;99.90
68385;DHT22;55336;43.062;25.626;2022-09-24T17:41:30;9.70;99.90
68385;DHT22;55336;43.062;25.626;2022-09-24T17:43:55;9.60;99.90
68385;DHT22;55336;43.062;25.626;2022-09-24T17:46:29;9.50;99.90
68385;DHT22;55336;43.062;25.626;2022-09-24T17:48:56;9.40;99.90
68385;DHT22;55336;43.062;25.626;2022-09-24T17:51:27;9.30;99.90
68385;DHT22;55336;43.062;25.626;2022-09-24T17:53:57;9.20;99.90